sensor_id;sensor_type;location;lat;lon;timestamp;pressure;altitude;pressure_sealevel;temperature;humidity
63088;BME280;49173;43.164;27.786;2023-04-27T00:01:22;99951.72;;;12.06;78.19
63088;BME280;49173;43.164;27.786;2023-04-27T00:03:48;99949.91;;;12.07;79.00
63088;BME280;49173;43.164;27.786;2023-04-27T00:06:15;99944.72;;;12.04;79.42
63088;BME280;49173;43.164;27.786;2023-04-27T00:08:41;99958.56;;;11.98;79.96
63088;BME280;49173;43.164;27.786;2023-04-27T00:11:06;99952.69;;;11.78;76.39
63088;BME280;49173;43.164;27.786;2023-04-27T00:13:32;99954.28;;;11.54;77.02
63088;BME280;49173;43.164;27.786;2023-04-27T00:15:59;99956.13;;;11.53;79.26
63088;BME280;49173;43.164;27.786;2023-04-27T00:18:28;99960.53;;;11.54;79.40
63088;BME280;49173;43.164;27.786;2023-04-27T00:20:55;99956.06;;;11.41;77.01
63088;BME280;49173;43.164;27.786;2023-04-27T00:23:21;99949.00;;;11.25;76.55
63088;BME280;49173;43.164;27.786;2023-04-27T00:25:47;99960.06;;;11.21;76.66
63088;BME280;49173;43.164;27.786;2023-04-27T00:28:13;99961.09;;;11.18;78.70
63088;BME280;49173;43.164;27.786;2023-04-27T00:30:38;99964.94;;;11.14;77.73
63088;BME280;49173;43.164;27.786;2023-04-27T00:33:04;99957.19;;;11.10;76.49
63088;BME280;49173;43.164;27.786;2023-04-27T00:35:33;99955.94;;;11.01;76.51
63088;BME280;49173;43.164;27.786;2023-04-27T00:37:59;99959.75;;;11.11;77.38
63088;BME280;49173;43.164;27.786;2023-04-27T00:40:25;99956.09;;;11.12;76.47
63088;BME280;49173;43.164;27.786;2023-04-27T00:42:50;99957.66;;;11.02;76.26
63088;BME280;49173;43.164;27.786;2023-04-27T00:45:16;99965.34;;;10.94;75.04
63088;BME280;49173;43.164;27.786;2023-04-27T00:47:43;99954.03;;;10.89;75.32
63088;BME280;49173;43.164;27.786;2023-04-27T00:50:10;99968.41;;;10.88;76.29
63088;BME280;49173;43.164;27.786;2023-04-27T00:52:37;99970.50;;;10.83;76.00
63088;BME280;49173;43.164;27.786;2023-04-27T00:55:04;99969.53;;;10.84;75.71
63088;BME280;49173;43.164;27.786;2023-04-27T00:57:31;99968.09;;;10.78;74.84
63088;BME280;49173;43.164;27.786;2023-04-27T01:00:01;99977.22;;;10.61;74.88
63088;BME280;49173;43.164;27.786;2023-04-27T01:02:30;99976.22;;;10.48;72.66
63088;BME280;49173;43.164;27.786;2023-04-27T01:04:56;99974.47;;;10.33;72.84
63088;BME280;49173;43.164;27.786;2023-04-27T01:07:25;99971.28;;;10.26;74.35
63088;BME280;49173;43.164;27.786;2023-04-27T01:09:51;99977.19;;;10.17;71.92
63088;BME280;49173;43.164;27.786;2023-04-27T01:12:17;99983.16;;;10.06;73.78
63088;BME280;49173;43.164;27.786;2023-04-27T01:14:42;99983.53;;;10.00;73.34
63088;BME280;49173;43.164;27.786;2023-04-27T01:17:08;99970.50;;;9.78;70.36
63088;BME280;49173;43.164;27.786;2023-04-27T01:19:35;99963.81;;;9.55;72.72
63088;BME280;49173;43.164;27.786;2023-04-27T01:22:01;99969.53;;;9.33;71.35
63088;BME280;49173;43.164;27.786;2023-04-27T01:24:27;99983.00;;;9.32;74.94
63088;BME280;49173;43.164;27.786;2023-04-27T01:26:53;99971.25;;;9.34;73.62
63088;BME280;49173;43.164;27.786;2023-04-27T01:29:19;99969.84;;;9.43;75.37
63088;BME280;49173;43.164;27.786;2023-04-27T01:31:45;99975.16;;;9.45;74.56
63088;BME280;49173;43.164;27.786;2023-04-27T01:34:11;99975.22;;;9.43;74.46
63088;BME280;49173;43.164;27.786;2023-04-27T01:36:37;99979.72;;;9.43;72.20
63088;BME280;49173;43.164;27.786;2023-04-27T01:39:03;99977.38;;;9.36;74.05
63088;BME280;49173;43.164;27.786;2023-04-27T01:41:33;99976.78;;;9.47;75.05
63088;BME280;49173;43.164;27.786;2023-04-27T01:43:59;99980.00;;;9.38;74.53
63088;BME280;49173;43.164;27.786;2023-04-27T01:46:25;99982.38;;;9.43;74.77
63088;BME280;49173;43.164;27.786;2023-04-27T01:48:51;99986.34;;;9.35;74.50
63088;BME280;49173;43.164;27.786;2023-04-27T01:51:17;99993.00;;;9.28;73.96
63088;BME280;49173;43.164;27.786;2023-04-27T01:53:43;99996.50;;;9.30;74.52
63088;BME280;49173;43.164;27.786;2023-04-27T01:56:08;100003.63;;;9.30;74.28
63088;BME280;49173;43.164;27.786;2023-04-27T01:58:34;100001.91;;;9.29;74.49
63088;BME280;49173;43.164;27.786;2023-04-27T02:01:00;100000.63;;;9.36;74.51
63088;BME280;49173;43.164;27.786;2023-04-27T02:03:26;100026.53;;;9.35;74.02
63088;BME280;49173;43.164;27.786;2023-04-27T02:05:52;100019.69;;;9.30;71.15
63088;BME280;49173;43.164;27.786;2023-04-27T02:08:18;100017.97;;;9.29;73.01
63088;BME280;49173;43.164;27.786;2023-04-27T02:10:43;100028.53;;;9.32;71.82
63088;BME280;49173;43.164;27.786;2023-04-27T02:13:09;100032.59;;;9.39;71.57
63088;BME280;49173;43.164;27.786;2023-04-27T02:15:35;100053.31;;;9.35;71.14
63088;BME280;49173;43.164;27.786;2023-04-27T02:18:02;100057.72;;;9.36;70.88
63088;BME280;49173;43.164;27.786;2023-04-27T02:20:31;100058.00;;;9.48;71.93
63088;BME280;49173;43.164;27.786;2023-04-27T02:22:58;100063.78;;;9.56;68.18
63088;BME280;49173;43.164;27.786;2023-04-27T02:25:23;100074.09;;;9.63;71.94
63088;BME280;49173;43.164;27.786;2023-04-27T02:27:49;100060.78;;;9.62;68.49
63088;BME280;49173;43.164;27.786;2023-04-27T02:30:15;100072.69;;;9.72;70.02
63088;BME280;49173;43.164;27.786;2023-04-27T02:32:41;100069.78;;;9.77;69.69
63088;BME280;49173;43.164;27.786;2023-04-27T02:35:07;100073.41;;;9.76;68.45
63088;BME280;49173;43.164;27.786;2023-04-27T02:37:34;100084.41;;;9.87;69.30
63088;BME280;49173;43.164;27.786;2023-04-27T02:40:00;100080.47;;;9.93;69.14
63088;BME280;49173;43.164;27.786;2023-04-27T02:42:25;100071.47;;;9.94;68.71
63088;BME280;49173;43.164;27.786;2023-04-27T02:44:51;100077.53;;;9.97;68.76
63088;BME280;49173;43.164;27.786;2023-04-27T02:47:18;100059.75;;;9.96;68.58
63088;BME280;49173;43.164;27.786;2023-04-27T02:49:45;100066.38;;;10.05;68.71
63088;BME280;49173;43.164;27.786;2023-04-27T02:52:10;100067.59;;;9.99;68.69
63088;BME280;49173;43.164;27.786;2023-04-27T02:54:36;100069.94;;;9.89;68.27
63088;BME280;49173;43.164;27.786;2023-04-27T02:57:02;100064.16;;;9.66;67.68
63088;BME280;49173;43.164;27.786;2023-04-27T02:59:28;100051.44;;;9.53;69.87
63088;BME280;49173;43.164;27.786;2023-04-27T03:01:54;100047.81;;;9.54;69.26
63088;BME280;49173;43.164;27.786;2023-04-27T03:04:19;100050.41;;;9.40;70.99
63088;BME280;49173;43.164;27.786;2023-04-27T03:06:45;100050.72;;;9.34;71.98
63088;BME280;49173;43.164;27.786;2023-04-27T03:09:11;100043.84;;;9.46;72.16
63088;BME280;49173;43.164;27.786;2023-04-27T03:11:38;100047.28;;;9.48;72.64
63088;BME280;49173;43.164;27.786;2023-04-27T03:14:04;100053.22;;;9.37;71.95
63088;BME280;49173;43.164;27.786;2023-04-27T03:16:31;100036.56;;;9.32;71.21
63088;BME280;49173;43.164;27.786;2023-04-27T03:18:57;100038.44;;;9.30;72.08
63088;BME280;49173;43.164;27.786;2023-04-27T03:21:23;100045.88;;;9.25;72.99
63088;BME280;49173;43.164;27.786;2023-04-27T03:23:48;100044.31;;;9.21;71.66
63088;BME280;49173;43.164;27.786;2023-04-27T03:26:14;100049.03;;;9.16;72.57
63088;BME280;49173;43.164;27.786;2023-04-27T03:28:40;100045.06;;;9.07;73.71
63088;BME280;49173;43.164;27.786;2023-04-27T03:31:07;100047.72;;;9.07;73.39
63088;BME280;49173;43.164;27.786;2023-04-27T03:33:34;100045.88;;;8.92;73.36
63088;BME280;49173;43.164;27.786;2023-04-27T03:36:01;100065.78;;;8.86;73.14
63088;BME280;49173;43.164;27.786;2023-04-27T03:38:29;100063.38;;;8.82;73.66
63088;BME280;49173;43.164;27.786;2023-04-27T03:40:55;100064.56;;;8.76;72.69
63088;BME280;49173;43.164;27.786;2023-04-27T03:43:22;100061.97;;;8.74;72.41
63088;BME280;49173;43.164;27.786;2023-04-27T03:45:48;100086.75;;;8.78;74.05
63088;BME280;49173;43.164;27.786;2023-04-27T03:48:14;100086.25;;;8.87;71.93
63088;BME280;49173;43.164;27.786;2023-04-27T03:50:41;100099.63;;;8.87;72.30
63088;BME280;49173;43.164;27.786;2023-04-27T03:53:07;100115.56;;;8.90;72.37
63088;BME280;49173;43.164;27.786;2023-04-27T03:55:36;100116.00;;;8.98;73.11
63088;BME280;49173;43.164;27.786;2023-04-27T03:58:02;100117.09;;;9.12;72.99
63088;BME280;49173;43.164;27.786;2023-04-27T04:00:27;100124.81;;;9.18;72.91
63088;BME280;49173;43.164;27.786;2023-04-27T04:02:53;100133.97;;;9.29;71.82
63088;BME280;49173;43.164;27.786;2023-04-27T04:05:19;100138.88;;;9.39;71.32
63088;BME280;49173;43.164;27.786;2023-04-27T04:07:44;100130.41;;;9.46;70.52
63088;BME280;49173;43.164;27.786;2023-04-27T04:10:10;100141.72;;;9.51;69.17
63088;BME280;49173;43.164;27.786;2023-04-27T04:12:36;100150.06;;;9.62;69.02
63088;BME280;49173;43.164;27.786;2023-04-27T04:15:03;100142.56;;;9.69;69.24
63088;BME280;49173;43.164;27.786;2023-04-27T04:17:29;100152.00;;;9.76;69.11
63088;BME280;49173;43.164;27.786;2023-04-27T04:19:55;100149.84;;;9.83;69.04
63088;BME280;49173;43.164;27.786;2023-04-27T04:22:21;100157.69;;;9.86;67.46
63088;BME280;49173;43.164;27.786;2023-04-27T04:24:46;100161.69;;;9.95;67.66
63088;BME280;49173;43.164;27.786;2023-04-27T04:27:12;100161.44;;;9.99;66.65
63088;BME280;49173;43.164;27.786;2023-04-27T04:29:38;100159.38;;;10.04;67.06
63088;BME280;49173;43.164;27.786;2023-04-27T04:32:05;100165.88;;;10.16;68.96
63088;BME280;49173;43.164;27.786;2023-04-27T04:34:31;100171.81;;;10.21;69.89
63088;BME280;49173;43.164;27.786;2023-04-27T04:36:58;100161.81;;;10.25;68.38
63088;BME280;49173;43.164;27.786;2023-04-27T04:39:23;100172.94;;;10.17;66.55
63088;BME280;49173;43.164;27.786;2023-04-27T04:41:51;100178.22;;;10.18;66.87
63088;BME280;49173;43.164;27.786;2023-04-27T04:44:17;100186.16;;;10.20;65.61
63088;BME280;49173;43.164;27.786;2023-04-27T04:46:45;100186.25;;;10.03;63.08
63088;BME280;49173;43.164;27.786;2023-04-27T04:49:11;100186.34;;;10.01;65.06
63088;BME280;49173;43.164;27.786;2023-04-27T04:51:41;100179.50;;;10.11;66.25
63088;BME280;49173;43.164;27.786;2023-04-27T04:54:07;100193.53;;;10.16;65.65
63088;BME280;49173;43.164;27.786;2023-04-27T04:56:33;100184.88;;;10.11;65.37
63088;BME280;49173;43.164;27.786;2023-04-27T04:59:00;100183.59;;;10.18;66.15
63088;BME280;49173;43.164;27.786;2023-04-27T05:01:26;100186.97;;;10.22;66.04
63088;BME280;49173;43.164;27.786;2023-04-27T05:03:52;100198.09;;;10.14;64.93
63088;BME280;49173;43.164;27.786;2023-04-27T05:06:18;100184.91;;;10.27;65.86
63088;BME280;49173;43.164;27.786;2023-04-27T05:08:43;100187.94;;;10.37;65.87
63088;BME280;49173;43.164;27.786;2023-04-27T05:11:09;100188.19;;;10.32;63.97
63088;BME280;49173;43.164;27.786;2023-04-27T05:13:38;100197.31;;;10.30;65.76
63088;BME280;49173;43.164;27.786;2023-04-27T05:16:05;100181.38;;;10.27;64.19
63088;BME280;49173;43.164;27.786;2023-04-27T05:18:31;100191.63;;;10.18;65.24
63088;BME280;49173;43.164;27.786;2023-04-27T05:20:57;100197.25;;;10.14;65.15
63088;BME280;49173;43.164;27.786;2023-04-27T05:23:23;100193.09;;;10.08;65.85
63088;BME280;49173;43.164;27.786;2023-04-27T05:25:49;100198.53;;;10.07;66.31
63088;BME280;49173;43.164;27.786;2023-04-27T05:28:14;100199.88;;;10.15;66.52
63088;BME280;49173;43.164;27.786;2023-04-27T05:30:40;100203.03;;;10.06;65.71
63088;BME280;49173;43.164;27.786;2023-04-27T05:33:06;100208.72;;;10.00;66.49
63088;BME280;49173;43.164;27.786;2023-04-27T05:35:33;100208.81;;;9.99;66.33
63088;BME280;49173;43.164;27.786;2023-04-27T05:38:01;100215.03;;;9.99;67.37
63088;BME280;49173;43.164;27.786;2023-04-27T05:40:29;100208.34;;;10.08;68.08
63088;BME280;49173;43.164;27.786;2023-04-27T05:42:56;100203.56;;;9.97;66.89
63088;BME280;49173;43.164;27.786;2023-04-27T05:45:22;100205.91;;;10.03;67.75
63088;BME280;49173;43.164;27.786;2023-04-27T05:47:51;100201.50;;;10.02;66.73
63088;BME280;49173;43.164;27.786;2023-04-27T05:50:17;100204.50;;;10.12;67.46
63088;BME280;49173;43.164;27.786;2023-04-27T05:52:43;100200.00;;;10.12;67.55
63088;BME280;49173;43.164;27.786;2023-04-27T05:55:10;100200.44;;;10.05;65.98
63088;BME280;49173;43.164;27.786;2023-04-27T05:57:38;100202.44;;;10.01;66.37
63088;BME280;49173;43.164;27.786;2023-04-27T06:00:05;100206.31;;;9.96;66.06
63088;BME280;49173;43.164;27.786;2023-04-27T06:02:39;100202.25;;;9.88;66.11
63088;BME280;49173;43.164;27.786;2023-04-27T06:05:07;100207.53;;;9.90;66.97
63088;BME280;49173;43.164;27.786;2023-04-27T06:07:33;100205.59;;;9.92;66.45
63088;BME280;49173;43.164;27.786;2023-04-27T06:10:02;100207.00;;;9.99;67.89
63088;BME280;49173;43.164;27.786;2023-04-27T06:12:33;100206.44;;;10.10;67.85
63088;BME280;49173;43.164;27.786;2023-04-27T06:15:03;100204.69;;;10.09;66.53
63088;BME280;49173;43.164;27.786;2023-04-27T06:17:37;100208.34;;;10.08;65.56
63088;BME280;49173;43.164;27.786;2023-04-27T06:20:07;100211.50;;;10.14;67.21
63088;BME280;49173;43.164;27.786;2023-04-27T06:22:37;100218.25;;;10.23;65.26
63088;BME280;49173;43.164;27.786;2023-04-27T06:25:05;100211.72;;;10.27;66.31
63088;BME280;49173;43.164;27.786;2023-04-27T06:27:32;100213.28;;;10.47;66.44
63088;BME280;49173;43.164;27.786;2023-04-27T06:30:02;100220.91;;;10.55;64.88
63088;BME280;49173;43.164;27.786;2023-04-27T06:32:31;100219.88;;;10.57;63.71
63088;BME280;49173;43.164;27.786;2023-04-27T06:34:57;100217.88;;;10.61;63.47
63088;BME280;49173;43.164;27.786;2023-04-27T06:37:23;100216.06;;;10.61;62.50
63088;BME280;49173;43.164;27.786;2023-04-27T06:39:51;100204.34;;;10.62;63.32
63088;BME280;49173;43.164;27.786;2023-04-27T06:42:18;100216.31;;;10.57;61.89
63088;BME280;49173;43.164;27.786;2023-04-27T06:44:45;100219.94;;;10.56;61.65
63088;BME280;49173;43.164;27.786;2023-04-27T06:47:11;100222.97;;;10.50;61.66
63088;BME280;49173;43.164;27.786;2023-04-27T06:49:38;100230.97;;;10.51;61.99
63088;BME280;49173;43.164;27.786;2023-04-27T06:52:19;100228.19;;;10.53;62.65
63088;BME280;49173;43.164;27.786;2023-04-27T06:54:46;100234.50;;;10.52;61.19
63088;BME280;49173;43.164;27.786;2023-04-27T06:57:13;100227.41;;;10.51;60.18
63088;BME280;49173;43.164;27.786;2023-04-27T06:59:39;100228.09;;;10.54;62.74
63088;BME280;49173;43.164;27.786;2023-04-27T07:02:06;100229.56;;;10.60;61.01
63088;BME280;49173;43.164;27.786;2023-04-27T07:04:34;100218.84;;;10.60;61.16
63088;BME280;49173;43.164;27.786;2023-04-27T07:07:05;100222.78;;;10.68;61.47
63088;BME280;49173;43.164;27.786;2023-04-27T07:09:33;100227.91;;;10.73;60.82
63088;BME280;49173;43.164;27.786;2023-04-27T07:11:59;100238.09;;;10.82;61.15
63088;BME280;49173;43.164;27.786;2023-04-27T07:14:28;100230.75;;;10.86;60.84
63088;BME280;49173;43.164;27.786;2023-04-27T07:16:56;100229.25;;;10.96;60.79
63088;BME280;49173;43.164;27.786;2023-04-27T07:19:24;100218.75;;;11.07;60.41
63088;BME280;49173;43.164;27.786;2023-04-27T07:21:50;100220.97;;;11.15;59.69
63088;BME280;49173;43.164;27.786;2023-04-27T07:24:17;100233.53;;;11.14;58.87
63088;BME280;49173;43.164;27.786;2023-04-27T07:26:46;100228.66;;;11.21;59.25
63088;BME280;49173;43.164;27.786;2023-04-27T07:29:14;100226.19;;;11.32;61.11
63088;BME280;49173;43.164;27.786;2023-04-27T07:31:42;100226.13;;;11.48;60.36
63088;BME280;49173;43.164;27.786;2023-04-27T07:34:09;100224.41;;;11.75;59.76
63088;BME280;49173;43.164;27.786;2023-04-27T07:36:36;100219.56;;;11.96;57.56
63088;BME280;49173;43.164;27.786;2023-04-27T07:39:03;100231.97;;;12.13;55.84
63088;BME280;49173;43.164;27.786;2023-04-27T07:41:29;100221.19;;;12.27;56.30
63088;BME280;49173;43.164;27.786;2023-04-27T07:44:00;100226.72;;;12.38;56.25
63088;BME280;49173;43.164;27.786;2023-04-27T07:46:31;100233.78;;;12.54;55.56
63088;BME280;49173;43.164;27.786;2023-04-27T07:48:58;100233.00;;;12.66;53.73
63088;BME280;49173;43.164;27.786;2023-04-27T07:51:27;100234.53;;;12.70;50.93
63088;BME280;49173;43.164;27.786;2023-04-27T07:53:54;100234.06;;;12.63;50.46
63088;BME280;49173;43.164;27.786;2023-04-27T07:56:20;100223.66;;;12.72;50.61
63088;BME280;49173;43.164;27.786;2023-04-27T07:58:46;100229.22;;;12.83;51.75
63088;BME280;49173;43.164;27.786;2023-04-27T08:01:14;100246.75;;;12.88;50.14
63088;BME280;49173;43.164;27.786;2023-04-27T08:03:40;100242.63;;;12.97;50.17
63088;BME280;49173;43.164;27.786;2023-04-27T08:06:07;100243.81;;;13.06;52.17
63088;BME280;49173;43.164;27.786;2023-04-27T08:08:34;100239.41;;;13.17;51.18
63088;BME280;49173;43.164;27.786;2023-04-27T08:11:02;100241.13;;;13.33;52.08
63088;BME280;49173;43.164;27.786;2023-04-27T08:13:32;100244.69;;;13.33;49.78
63088;BME280;49173;43.164;27.786;2023-04-27T08:16:01;100232.50;;;13.28;47.53
63088;BME280;49173;43.164;27.786;2023-04-27T08:18:29;100240.69;;;13.26;50.46
63088;BME280;49173;43.164;27.786;2023-04-27T08:20:56;100248.44;;;13.31;49.91
63088;BME280;49173;43.164;27.786;2023-04-27T08:23:28;100248.53;;;13.29;49.33
63088;BME280;49173;43.164;27.786;2023-04-27T08:25:54;100239.53;;;13.16;48.66
63088;BME280;49173;43.164;27.786;2023-04-27T08:28:22;100247.78;;;13.27;48.45
63088;BME280;49173;43.164;27.786;2023-04-27T08:30:49;100249.63;;;13.27;48.13
63088;BME280;49173;43.164;27.786;2023-04-27T08:33:16;100255.13;;;13.25;48.06
63088;BME280;49173;43.164;27.786;2023-04-27T08:35:43;100254.69;;;13.31;50.47
63088;BME280;49173;43.164;27.786;2023-04-27T08:38:11;100264.09;;;13.38;47.44
63088;BME280;49173;43.164;27.786;2023-04-27T08:40:43;100264.09;;;13.38;48.90
63088;BME280;49173;43.164;27.786;2023-04-27T08:43:11;100258.69;;;13.38;48.18
63088;BME280;49173;43.164;27.786;2023-04-27T08:45:42;100248.13;;;13.35;47.38
63088;BME280;49173;43.164;27.786;2023-04-27T08:48:13;100250.97;;;13.46;48.66
63088;BME280;49173;43.164;27.786;2023-04-27T08:50:42;100240.94;;;13.49;47.01
63088;BME280;49173;43.164;27.786;2023-04-27T08:53:21;100240.19;;;13.46;49.05
63088;BME280;49173;43.164;27.786;2023-04-27T08:55:49;100240.84;;;13.63;50.27
63088;BME280;49173;43.164;27.786;2023-04-27T08:58:16;100244.84;;;13.70;47.99
63088;BME280;49173;43.164;27.786;2023-04-27T09:00:43;100227.25;;;13.77;49.23
63088;BME280;49173;43.164;27.786;2023-04-27T09:03:24;100234.38;;;13.78;46.55
63088;BME280;49173;43.164;27.786;2023-04-27T09:05:55;100228.97;;;13.78;45.91
63088;BME280;49173;43.164;27.786;2023-04-27T09:08:23;100231.34;;;13.70;46.31
63088;BME280;49173;43.164;27.786;2023-04-27T09:10:50;100231.88;;;13.62;47.02
63088;BME280;49173;43.164;27.786;2023-04-27T09:13:18;100241.78;;;13.49;46.60
63088;BME280;49173;43.164;27.786;2023-04-27T09:15:49;100227.53;;;13.34;46.28
63088;BME280;49173;43.164;27.786;2023-04-27T09:18:20;100232.78;;;13.23;50.05
63088;BME280;49173;43.164;27.786;2023-04-27T09:20:48;100234.50;;;13.24;47.95
63088;BME280;49173;43.164;27.786;2023-04-27T09:23:44;100241.84;;;13.22;47.70
63088;BME280;49173;43.164;27.786;2023-04-27T09:26:21;100252.22;;;13.28;50.37
63088;BME280;49173;43.164;27.786;2023-04-27T09:28:57;100238.44;;;13.45;48.47
63088;BME280;49173;43.164;27.786;2023-04-27T09:31:34;100244.81;;;13.57;48.28
63088;BME280;49173;43.164;27.786;2023-04-27T09:34:01;100244.50;;;13.62;47.51
63088;BME280;49173;43.164;27.786;2023-04-27T09:36:30;100236.31;;;13.63;46.95
63088;BME280;49173;43.164;27.786;2023-04-27T09:39:03;100243.97;;;13.57;46.82
63088;BME280;49173;43.164;27.786;2023-04-27T09:41:31;100246.84;;;13.41;47.26
63088;BME280;49173;43.164;27.786;2023-04-27T09:43:59;100239.53;;;13.43;49.12
63088;BME280;49173;43.164;27.786;2023-04-27T09:46:33;100237.56;;;13.45;47.80
63088;BME280;49173;43.164;27.786;2023-04-27T09:49:03;100252.06;;;13.57;47.41
63088;BME280;49173;43.164;27.786;2023-04-27T09:51:33;100235.00;;;13.56;47.31
63088;BME280;49173;43.164;27.786;2023-04-27T09:54:02;100247.97;;;13.64;50.29
63088;BME280;49173;43.164;27.786;2023-04-27T09:59:35;100228.31;;;13.87;49.65
63088;BME280;49173;43.164;27.786;2023-04-27T10:02:14;100229.16;;;14.00;49.37
63088;BME280;49173;43.164;27.786;2023-04-27T10:04:59;100219.91;;;14.05;48.68
63088;BME280;49173;43.164;27.786;2023-04-27T10:07:33;100221.19;;;14.12;47.66
63088;BME280;49173;43.164;27.786;2023-04-27T10:10:01;100218.91;;;14.18;46.86
63088;BME280;49173;43.164;27.786;2023-04-27T10:12:34;100232.41;;;14.18;46.09
63088;BME280;49173;43.164;27.786;2023-04-27T10:15:15;100231.31;;;14.21;45.55
63088;BME280;49173;43.164;27.786;2023-04-27T10:17:53;100224.16;;;14.33;47.82
63088;BME280;49173;43.164;27.786;2023-04-27T10:20:34;100220.25;;;14.49;47.43
63088;BME280;49173;43.164;27.786;2023-04-27T10:23:03;100221.81;;;14.65;47.17
63088;BME280;49173;43.164;27.786;2023-04-27T10:25:40;100227.06;;;14.79;47.10
63088;BME280;49173;43.164;27.786;2023-04-27T10:28:06;100226.25;;;14.90;47.59
63088;BME280;49173;43.164;27.786;2023-04-27T10:30:42;100231.50;;;15.04;47.88
63088;BME280;49173;43.164;27.786;2023-04-27T10:33:10;100219.38;;;15.21;46.48
63088;BME280;49173;43.164;27.786;2023-04-27T10:35:40;100223.59;;;15.25;44.97
63088;BME280;49173;43.164;27.786;2023-04-27T10:38:18;100222.53;;;15.38;46.88
63088;BME280;49173;43.164;27.786;2023-04-27T10:40:57;100215.41;;;15.49;45.90
63088;BME280;49173;43.164;27.786;2023-04-27T10:43:28;100214.81;;;15.45;44.82
63088;BME280;49173;43.164;27.786;2023-04-27T10:46:17;100228.59;;;15.53;47.21
63088;BME280;49173;43.164;27.786;2023-04-27T10:48:43;100226.19;;;15.61;45.56
63088;BME280;49173;43.164;27.786;2023-04-27T10:51:15;100223.75;;;15.81;46.47
63088;BME280;49173;43.164;27.786;2023-04-27T10:53:43;100228.69;;;15.98;45.84
63088;BME280;49173;43.164;27.786;2023-04-27T10:56:10;100216.03;;;16.10;44.35
63088;BME280;49173;43.164;27.786;2023-04-27T10:58:43;100213.19;;;15.89;42.87
63088;BME280;49173;43.164;27.786;2023-04-27T11:01:10;100230.63;;;15.85;44.34
63088;BME280;49173;43.164;27.786;2023-04-27T11:03:37;100212.94;;;16.03;46.33
63088;BME280;49173;43.164;27.786;2023-04-27T11:06:04;100214.41;;;16.18;44.79
63088;BME280;49173;43.164;27.786;2023-04-27T11:08:42;100223.38;;;16.41;47.63
63088;BME280;49173;43.164;27.786;2023-04-27T11:11:15;100223.28;;;16.43;42.31
63088;BME280;49173;43.164;27.786;2023-04-27T11:13:47;100236.09;;;16.30;43.44
63088;BME280;49173;43.164;27.786;2023-04-27T11:16:17;100220.69;;;16.19;42.17
63088;BME280;49173;43.164;27.786;2023-04-27T11:18:44;100213.19;;;16.23;45.11
63088;BME280;49173;43.164;27.786;2023-04-27T11:21:14;100210.81;;;16.40;44.54
63088;BME280;49173;43.164;27.786;2023-04-27T11:23:42;100205.97;;;16.66;45.05
63088;BME280;49173;43.164;27.786;2023-04-27T11:26:19;100207.47;;;16.59;44.48
63088;BME280;49173;43.164;27.786;2023-04-27T11:28:59;100206.53;;;16.38;42.67
63088;BME280;49173;43.164;27.786;2023-04-27T11:31:37;100196.69;;;16.37;42.05
63088;BME280;49173;43.164;27.786;2023-04-27T11:34:06;100194.19;;;16.45;45.13
63088;BME280;49173;43.164;27.786;2023-04-27T11:36:35;100212.00;;;16.70;44.86
63088;BME280;49173;43.164;27.786;2023-04-27T11:39:04;100206.22;;;16.86;44.38
63088;BME280;49173;43.164;27.786;2023-04-27T11:41:35;100211.72;;;16.84;42.36
63088;BME280;49173;43.164;27.786;2023-04-27T11:44:09;100222.34;;;16.87;42.05
63088;BME280;49173;43.164;27.786;2023-04-27T11:46:36;100215.34;;;16.85;41.92
63088;BME280;49173;43.164;27.786;2023-04-27T11:49:05;100205.47;;;16.61;40.09
63088;BME280;49173;43.164;27.786;2023-04-27T11:51:33;100217.34;;;16.38;41.41
63088;BME280;49173;43.164;27.786;2023-04-27T11:54:05;100208.75;;;16.44;43.05
63088;BME280;49173;43.164;27.786;2023-04-27T11:56:38;100209.78;;;16.75;42.20
63088;BME280;49173;43.164;27.786;2023-04-27T11:59:21;100207.63;;;17.01;44.18
63088;BME280;49173;43.164;27.786;2023-04-27T12:01:50;100228.28;;;17.13;41.91
63088;BME280;49173;43.164;27.786;2023-04-27T12:04:16;100211.63;;;17.39;42.56
63088;BME280;49173;43.164;27.786;2023-04-27T12:06:44;100214.28;;;17.29;41.73
63088;BME280;49173;43.164;27.786;2023-04-27T12:09:10;100224.31;;;17.17;41.75
63088;BME280;49173;43.164;27.786;2023-04-27T12:11:37;100214.94;;;17.21;41.27
63088;BME280;49173;43.164;27.786;2023-04-27T12:14:06;100220.50;;;17.41;47.95
63088;BME280;49173;43.164;27.786;2023-04-27T12:16:36;100217.16;;;17.48;42.02
63088;BME280;49173;43.164;27.786;2023-04-27T12:19:04;100214.66;;;17.66;41.01
63088;BME280;49173;43.164;27.786;2023-04-27T12:21:31;100215.81;;;17.84;42.42
63088;BME280;49173;43.164;27.786;2023-04-27T12:24:00;100214.69;;;17.87;38.72
63088;BME280;49173;43.164;27.786;2023-04-27T12:26:27;100223.69;;;17.88;40.25
63088;BME280;49173;43.164;27.786;2023-04-27T12:28:54;100228.75;;;18.02;41.74
63088;BME280;49173;43.164;27.786;2023-04-27T12:31:20;100230.25;;;17.85;39.42
63088;BME280;49173;43.164;27.786;2023-04-27T12:33:50;100239.31;;;17.74;39.19
63088;BME280;49173;43.164;27.786;2023-04-27T12:36:17;100227.13;;;17.48;39.58
63088;BME280;49173;43.164;27.786;2023-04-27T12:38:47;100235.03;;;17.40;40.23
63088;BME280;49173;43.164;27.786;2023-04-27T12:41:16;100224.72;;;17.34;38.40
63088;BME280;49173;43.164;27.786;2023-04-27T12:43:42;100236.81;;;16.97;39.48
63088;BME280;49173;43.164;27.786;2023-04-27T12:46:12;100225.75;;;16.89;40.07
63088;BME280;49173;43.164;27.786;2023-04-27T12:48:39;100232.16;;;16.99;41.98
63088;BME280;49173;43.164;27.786;2023-04-27T12:51:06;100242.25;;;16.97;39.92
63088;BME280;49173;43.164;27.786;2023-04-27T12:53:33;100238.31;;;17.01;42.18